Time;durP1;ratioP1;P1;durP2;ratioP2;P2;SDS_P1;SDS_P2;PMS_P1;PMS_P2;Temp;Humidity;BMP_temperature;BMP_pressure;BME280_temperature;BME280_humidity;BME280_pressure;Samples;Min_cycle;Max_cycle;Signal;HPM_P1;HPM_P2
2021/01/21 00:01:14;;;;;;;2.27;1.70;;;7.10;99.90;;;7.96;63.67;98692.22;5032349;28;20256;-67
2021/01/21 00:03:42;;;;;;;2.60;1.80;;;7.10;99.90;;;7.95;63.83;98698.66;5032011;28;20682;-67
2021/01/21 00:06:09;;;;;;;2.50;1.93;;;7.10;99.90;;;8.05;63.67;98691.59;5032357;28;20202;-68
2021/01/21 00:08:37;;;;;;;1.93;1.73;;;7.10;99.90;;;7.97;63.88;98689.28;5032293;28;20206;-69
2021/01/21 00:11:04;;;;;;;1.90;1.70;;;7.20;99.90;;;7.96;63.55;98682.31;5032179;28;20256;-68
2021/01/21 00:13:32;;;;;;;1.97;1.67;;;7.20;99.90;;;7.90;64.47;98683.25;5031386;28;20222;-68
2021/01/21 00:16:00;;;;;;;1.60;1.50;;;7.20;99.90;;;8.03;63.26;98677.63;5031756;28;20260;-67
2021/01/21 00:18:28;;;;;;;1.60;1.50;;;7.20;99.90;;;8.02;62.75;98669.78;5032122;28;20213;-67
2021/01/21 00:20:55;;;;;;;1.80;1.70;;;7.20;99.90;;;8.16;62.90;98673.81;5031458;28;20317;-68
2021/01/21 00:23:22;;;;;;;1.83;1.73;;;7.30;99.90;;;8.08;62.30;98668.84;5031722;28;20681;-68
2021/01/21 00:25:50;;;;;;;1.63;1.53;;;7.20;99.90;;;8.17;62.79;98662.03;5032092;28;20256;-68
2021/01/21 00:28:19;;;;;;;1.87;1.67;;;7.20;99.90;;;8.16;62.76;98660.41;5025650;28;20298;-69
2021/01/21 00:30:47;;;;;;;1.83;1.50;;;7.30;99.90;;;8.15;62.44;98650.75;5012201;28;20214;-68
2021/01/21 00:33:14;;;;;;;2.00;1.70;;;7.30;99.90;;;8.20;61.43;98656.19;5011768;28;20262;-67
2021/01/21 00:35:42;;;;;;;2.77;1.80;;;7.40;99.90;;;8.12;62.45;98653.88;5010455;28;20206;-67
2021/01/21 00:38:09;;;;;;;1.73;1.63;;;7.40;99.90;;;8.13;62.44;98642.13;5012180;28;20234;-67
2021/01/21 00:40:37;;;;;;;1.97;1.70;;;7.30;99.90;;;8.18;62.77;98659.13;5012179;28;20203;-66
2021/01/21 00:43:04;;;;;;;2.37;1.60;;;7.40;99.90;;;8.03;63.11;98648.13;5022560;28;20293;-69
2021/01/21 00:45:31;;;;;;;2.20;2.00;;;7.30;99.90;;;8.11;63.36;98642.38;5031547;28;20202;-66
2021/01/21 00:47:59;;;;;;;1.67;1.57;;;7.30;99.90;;;8.12;62.74;98644.00;5031519;28;20704;-67
2021/01/21 00:50:27;;;;;;;5.63;1.77;;;7.30;99.90;;;8.11;62.63;98638.88;5031470;28;20237;-67
2021/01/21 00:52:54;;;;;;;1.97;1.70;;;7.30;99.90;;;8.14;62.71;98641.06;5031417;28;20735;-68
2021/01/21 00:55:21;;;;;;;2.10;1.73;;;7.30;99.90;;;8.02;63.29;98626.91;5031580;28;20248;-68
2021/01/21 00:57:49;;;;;;;2.47;1.60;;;7.30;99.90;;;8.12;62.44;98630.56;5031203;28;20614;-67
2021/01/21 01:00:18;;;;;;;3.10;1.80;;;7.30;99.90;;;8.06;62.79;98622.69;5032089;28;20230;-67
2021/01/21 01:02:45;;;;;;;3.67;1.80;;;7.30;99.90;;;8.15;61.89;98616.69;5031760;28;20194;-67
2021/01/21 01:05:14;;;;;;;2.27;1.70;;;7.30;99.90;;;8.13;61.99;98615.31;5031244;28;20227;-67
2021/01/21 01:07:41;;;;;;;2.03;1.67;;;7.30;99.90;;;8.06;62.58;98618.16;5031226;28;20252;-67
2021/01/21 01:10:10;;;;;;;1.97;1.67;;;7.30;99.90;;;7.99;63.28;98622.03;5031557;28;20206;-67
2021/01/21 01:12:38;;;;;;;2.73;1.63;;;7.30;99.90;;;8.18;62.64;98618.91;5031265;28;20230;-67
2021/01/21 01:15:08;;;;;;;1.83;1.43;;;7.30;99.90;;;8.12;62.94;98616.34;5031283;28;20225;-66
2021/01/21 01:17:37;;;;;;;1.70;1.60;;;7.30;99.90;;;8.29;61.87;98618.03;5031208;28;20193;-67
2021/01/21 01:20:06;;;;;;;2.97;1.53;;;7.40;99.90;;;8.27;61.57;98611.31;5030836;28;20206;-68
2021/01/21 01:22:34;;;;;;;1.73;1.50;;;7.50;99.90;;;8.43;61.12;98608.63;5031540;28;20206;-68
2021/01/21 01:25:01;;;;;;;2.07;1.87;;;7.50;99.90;;;8.43;60.75;98615.84;5030984;28;20259;-68
2021/01/21 01:27:28;;;;;;;1.73;1.43;;;7.60;99.90;;;8.38;61.29;98611.22;5031734;28;20622;-68
2021/01/21 01:29:55;;;;;;;1.73;1.60;;;7.60;99.90;;;8.41;61.30;98605.34;5053981;28;20234;-68
2021/01/21 01:32:23;;;;;;;2.10;1.83;;;7.60;99.90;;;8.30;61.87;98614.28;5055058;28;20241;-68
2021/01/21 01:34:50;;;;;;;1.93;1.43;;;7.60;99.90;;;8.35;61.89;98602.84;5054476;28;20659;-67
2021/01/21 01:37:18;;;;;;;1.80;1.40;;;7.60;99.90;;;8.47;60.53;98592.84;5054797;28;20760;-67
2021/01/21 01:39:46;;;;;;;2.30;1.60;;;7.60;99.90;;;8.46;61.12;98596.56;5054923;28;20235;-68
2021/01/21 01:42:13;;;;;;;2.33;1.83;;;7.60;99.90;;;8.30;62.10;98587.47;5054778;28;20263;-67
2021/01/21 01:44:40;;;;;;;2.53;1.80;;;7.60;99.90;;;8.37;62.04;98577.38;5054714;28;20255;-67
2021/01/21 01:47:07;;;;;;;1.83;1.60;;;7.50;99.90;;;8.36;62.42;98580.31;5054531;28;20731;-67
2021/01/21 01:49:35;;;;;;;1.63;1.53;;;7.50;99.90;;;8.32;62.71;98569.25;5054465;28;20237;-67
2021/01/21 01:52:04;;;;;;;2.20;1.80;;;7.50;99.90;;;8.27;62.59;98576.44;5054735;28;20285;-67
2021/01/21 01:54:31;;;;;;;2.63;1.70;;;7.50;99.90;;;8.29;62.98;98566.25;5054689;28;20236;-68
2021/01/21 01:57:03;;;;;;;2.13;1.80;;;7.50;99.90;;;8.15;63.11;98562.25;5054290;28;20205;-67
2021/01/21 01:59:31;;;;;;;2.27;2.07;;;7.40;99.90;;;8.16;63.09;98570.03;5053874;28;20229;-68
2021/01/21 02:01:59;;;;;;;2.50;1.97;;;7.40;99.90;;;8.22;63.76;98566.38;5054103;28;20231;-67
2021/01/21 02:04:27;;;;;;;2.07;1.87;;;7.40;99.90;;;8.25;63.16;98559.75;5054248;28;20201;-67
2021/01/21 02:07:07;;;;;;;3.27;1.70;;;7.40;99.90;;;8.28;62.54;98564.63;5054338;28;20221;-68
2021/01/21 02:09:35;;;;;;;2.50;1.90;;;7.40;99.90;;;8.38;62.92;98562.09;5054391;28;20274;-68
2021/01/21 02:12:21;;;;;;;2.20;1.90;;;7.40;99.90;;;8.39;62.35;98545.75;5054416;28;20292;-66
2021/01/21 02:15:02;;;;;;;2.17;1.80;;;7.50;99.90;;;8.35;61.88;98552.69;5054307;28;20194;-67
2021/01/21 02:17:39;;;;;;;1.90;1.70;;;7.50;99.90;;;8.34;62.73;98547.53;5053856;28;20181;-67
2021/01/21 02:20:48;;;;;;;2.40;1.73;;;7.50;99.90;;;8.38;62.91;98546.81;5054296;28;20299;-67
2021/01/21 02:24:11;;;;;;;2.30;1.80;;;7.50;99.90;;;8.33;62.79;98536.03;5041231;28;20205;-68
2021/01/21 02:26:45;;;;;;;2.27;1.60;;;7.50;99.90;;;8.38;62.96;98543.31;5054183;28;20239;-67
2021/01/21 02:29:19;;;;;;;2.27;2.00;;;7.50;99.90;;;8.34;62.88;98545.69;5040225;28;20644;-67
2021/01/21 02:32:07;;;;;;;2.97;1.90;;;7.50;99.90;;;8.35;63.24;98533.09;5034076;28;20241;-67
2021/01/21 02:34:46;;;;;;;2.73;1.97;;;7.50;99.90;;;8.23;63.76;98543.06;4994611;28;20285;-67
2021/01/21 02:37:19;;;;;;;3.30;1.60;;;7.50;99.90;;;8.37;62.69;98529.09;4994652;28;20184;-67
2021/01/21 02:39:49;;;;;;;3.30;1.70;;;7.50;99.90;;;8.35;62.86;98527.72;4986002;28;20291;-67
2021/01/21 02:42:17;;;;;;;1.97;1.50;;;7.60;99.90;;;8.44;62.55;98516.31;4974976;28;20187;-67
2021/01/21 02:44:44;;;;;;;1.70;1.50;;;7.60;99.90;;;8.31;62.72;98518.53;4974912;28;20211;-67
2021/01/21 02:47:12;;;;;;;2.63;1.80;;;7.60;99.90;;;8.35;63.25;98506.25;4974787;28;20295;-67
2021/01/21 02:49:41;;;;;;;2.10;1.83;;;7.50;99.90;;;8.41;62.34;98507.94;4974919;28;20239;-67
2021/01/21 02:52:20;;;;;;;2.10;1.50;;;7.60;99.90;;;8.38;62.35;98508.44;4974590;28;20207;-67
2021/01/21 02:55:13;;;;;;;3.27;1.80;;;7.60;99.90;;;8.35;61.89;98504.41;4974847;28;20192;-67
2021/01/21 02:57:53;;;;;;;2.10;1.77;;;7.60;99.90;;;8.46;61.48;98500.78;4974691;28;20635;-69
2021/01/21 03:00:22;;;;;;;1.93;1.70;;;7.60;99.90;;;8.24;62.52;98504.47;4974392;28;20243;-68
2021/01/21 03:02:56;;;;;;;2.60;1.90;;;7.60;99.90;;;8.46;60.87;98510.72;4974288;28;20275;-67
2021/01/21 03:05:27;;;;;;;2.30;1.77;;;7.60;99.90;;;8.55;60.57;98507.38;4974707;28;20235;-67
2021/01/21 03:07:56;;;;;;;2.63;1.70;;;7.70;99.90;;;8.57;59.94;98513.28;4974619;28;20192;-67
2021/01/21 03:10:23;;;;;;;2.07;1.67;;;7.70;99.90;;;8.62;59.78;98520.63;4974719;28;20208;-67
2021/01/21 03:12:55;;;;;;;1.60;1.50;;;7.80;99.90;;;8.56;59.46;98514.34;4974119;28;20224;-67
2021/01/21 03:15:24;;;;;;;1.40;1.30;;;7.80;99.90;;;8.68;59.68;98508.88;4974375;28;20208;-68
2021/01/21 03:17:52;;;;;;;1.90;1.70;;;7.80;99.90;;;8.57;60.38;98505.22;4974068;28;20231;-66
2021/01/21 03:20:20;;;;;;;1.63;1.43;;;7.80;99.90;;;8.64;59.56;98497.03;4974010;28;20208;-68
2021/01/21 03:22:48;;;;;;;2.47;1.57;;;7.80;99.90;;;8.66;59.45;98486.81;4974020;28;20200;-67
2021/01/21 03:25:15;;;;;;;2.07;1.87;;;7.80;99.90;;;8.65;59.82;98493.28;4974097;28;20208;-69
2021/01/21 03:27:42;;;;;;;2.63;1.87;;;7.90;99.90;;;8.68;58.82;98490.09;4975425;28;20338;-68
2021/01/21 03:30:11;;;;;;;2.20;1.60;;;7.90;99.90;;;8.68;59.56;98481.25;5013017;28;20238;-69
2021/01/21 03:32:38;;;;;;;3.60;2.00;;;7.90;99.90;;;8.72;58.88;98487.72;5022664;28;20229;-68
2021/01/21 03:35:08;;;;;;;2.07;1.80;;;7.90;99.90;;;8.77;58.60;98469.00;5052890;28;20193;-68
2021/01/21 03:37:35;;;;;;;2.10;1.90;;;8.00;99.90;;;8.73;58.79;98479.41;5052358;28;20247;-68
2021/01/21 03:40:05;;;;;;;2.17;1.47;;;8.00;99.90;;;8.77;59.49;98485.91;5052674;28;20205;-68
2021/01/21 03:42:32;;;;;;;2.53;1.47;;;8.00;99.90;;;8.77;58.69;98485.09;5052697;28;20209;-68
2021/01/21 03:45:00;;;;;;;1.63;1.53;;;8.00;99.90;;;8.75;58.76;98479.97;5052409;28;20204;-68
2021/01/21 03:47:27;;;;;;;1.90;1.60;;;8.10;99.90;;;8.75;58.90;98481.84;5052172;28;20250;-68
2021/01/21 03:49:55;;;;;;;1.53;1.43;;;8.00;99.90;;;8.79;58.32;98485.66;5052225;28;20209;-68
2021/01/21 03:52:22;;;;;;;1.70;1.50;;;8.00;99.90;;;8.88;57.64;98482.28;5052109;28;20201;-67
2021/01/21 03:54:49;;;;;;;1.70;1.60;;;8.10;99.90;;;8.95;57.33;98471.34;5052102;28;20237;-67
2021/01/21 03:57:18;;;;;;;2.23;1.80;;;8.10;99.90;;;8.96;56.67;98460.38;5052242;28;20270;-67
2021/01/21 03:59:45;;;;;;;2.60;1.70;;;8.20;99.90;;;9.01;56.62;98465.81;5052167;28;20233;-68
2021/01/21 04:02:12;;;;;;;1.93;1.60;;;8.20;99.90;;;9.02;57.27;98472.78;5051872;28;20248;-68
2021/01/21 04:04:39;;;;;;;1.63;1.47;;;8.20;99.90;;;9.06;56.20;98465.88;5051989;28;20595;-67
2021/01/21 04:07:07;;;;;;;1.87;1.70;;;8.30;99.90;;;9.09;56.23;98469.91;5052419;28;20236;-67
2021/01/21 04:09:34;;;;;;;2.67;1.63;;;8.30;99.90;;;9.14;55.30;98465.41;5052203;28;20233;-67
2021/01/21 04:12:01;;;;;;;1.77;1.60;;;8.30;99.90;;;9.09;56.23;98451.13;5051713;28;20254;-67
2021/01/21 04:14:29;;;;;;;2.60;1.30;;;8.30;99.90;;;9.13;55.69;98447.66;5051650;28;20329;-67
2021/01/21 04:16:56;;;;;;;2.90;1.60;;;8.30;99.90;;;9.03;55.91;98444.06;5051636;28;20288;-67
2021/01/21 04:19:24;;;;;;;2.03;1.80;;;8.30;99.90;;;9.09;55.59;98443.88;5052154;28;20206;-66
2021/01/21 04:21:51;;;;;;;2.63;1.70;;;8.30;99.90;;;8.95;56.83;98445.31;5051825;28;20263;-68
2021/01/21 04:24:19;;;;;;;1.77;1.37;;;8.20;99.90;;;9.05;56.35;98452.69;5051844;28;20221;-67
2021/01/21 04:26:46;;;;;;;1.40;1.30;;;8.20;99.90;;;8.98;56.60;98450.19;5051838;28;20629;-67
2021/01/21 04:29:13;;;;;;;1.97;1.47;;;8.20;99.90;;;9.05;55.55;98447.31;5037981;28;20233;-67
2021/01/21 04:31:41;;;;;;;2.40;1.67;;;8.20;99.90;;;9.05;55.77;98437.38;5031391;28;20237;-67
2021/01/21 04:34:09;;;;;;;2.30;1.80;;;8.20;99.90;;;9.10;55.83;98437.44;5031386;28;20229;-67
2021/01/21 04:36:37;;;;;;;2.00;1.80;;;8.30;99.90;;;9.08;56.25;98434.19;5031704;28;20208;-67
2021/01/21 04:39:05;;;;;;;2.57;1.53;;;8.20;99.90;;;9.13;55.17;98436.91;5031566;28;20233;-66
2021/01/21 04:41:33;;;;;;;2.10;1.73;;;8.30;99.90;;;9.18;54.82;98436.19;5031654;28;20198;-67
2021/01/21 04:44:00;;;;;;;1.73;1.50;;;8.30;99.90;;;9.15;55.11;98444.75;5031224;28;20554;-67
2021/01/21 04:46:29;;;;;;;2.67;1.60;;;8.40;99.90;;;9.07;55.67;98440.63;5031423;28;20225;-67
2021/01/21 04:49:02;;;;;;;2.17;1.40;;;8.30;99.90;;;9.09;54.89;98440.38;5031663;28;20206;-68
2021/01/21 04:51:31;;;;;;;1.70;1.60;;;8.30;99.90;;;9.11;54.76;98433.69;5031418;28;20250;-67
2021/01/21 04:54:02;;;;;;;1.80;1.60;;;8.30;99.90;;;9.17;55.41;98416.56;5031677;28;20221;-67
2021/01/21 04:56:38;;;;;;;1.37;1.20;;;8.30;99.90;;;9.23;54.33;98415.56;5031713;28;20289;-68
2021/01/21 04:59:14;;;;;;;1.50;1.40;;;8.40;99.90;;;9.22;54.92;98415.78;5031414;28;20197;-67
2021/01/21 05:01:41;;;;;;;2.00;1.40;;;8.30;99.90;;;9.21;54.65;98411.50;5031112;28;20214;-68
2021/01/21 05:04:12;;;;;;;2.60;1.60;;;8.40;99.90;;;9.11;55.20;98409.53;5034911;28;20198;-68
2021/01/21 05:06:40;;;;;;;1.43;1.30;;;8.30;99.90;;;9.21;54.89;98398.88;5035615;28;20275;-68
2021/01/21 05:09:07;;;;;;;1.90;1.67;;;8.30;99.90;;;9.19;54.71;98409.06;5035630;28;20236;-68
2021/01/21 05:11:35;;;;;;;2.07;1.53;;;8.30;99.90;;;9.32;53.36;98402.47;5035613;28;20655;-68
2021/01/21 05:14:02;;;;;;;2.43;1.43;;;8.40;99.90;;;9.37;53.59;98403.31;5035044;28;20311;-68
2021/01/21 05:16:30;;;;;;;1.43;1.20;;;8.50;99.90;;;9.54;53.16;98405.88;5035375;28;20583;-68
2021/01/21 05:19:01;;;;;;;3.70;1.60;;;8.50;99.90;;;9.62;53.43;98400.06;5035403;28;20260;-68
2021/01/21 05:21:30;;;;;;;2.27;1.67;;;8.60;99.90;;;9.52;53.29;98399.97;5035513;28;20183;-68
2021/01/21 05:23:57;;;;;;;1.77;1.67;;;8.60;99.90;;;9.49;53.81;98403.97;5035497;28;20202;-68
2021/01/21 05:26:25;;;;;;;1.60;1.50;;;8.60;99.90;;;9.45;53.53;98402.84;5035285;28;20623;-68
2021/01/21 05:28:56;;;;;;;2.57;1.60;;;8.60;99.90;;;9.44;54.39;98400.41;5045166;28;20205;-67
2021/01/21 05:31:26;;;;;;;1.50;1.40;;;8.60;99.90;;;9.43;54.70;98405.00;5054331;28;20300;-68
2021/01/21 05:33:55;;;;;;;2.07;1.40;;;8.60;99.90;;;9.47;54.37;98398.03;5054617;28;20283;-68
2021/01/21 05:36:24;;;;;;;1.70;1.20;;;8.50;99.90;;;9.47;54.35;98392.66;5055538;28;20201;-68
2021/01/21 05:38:57;;;;;;;1.70;1.60;;;8.50;99.90;;;9.46;54.75;98380.28;5054967;28;20197;-68
2021/01/21 05:41:25;;;;;;;2.23;1.60;;;8.60;99.90;;;9.51;55.04;98388.41;5054747;28;20189;-69
2021/01/21 05:43:53;;;;;;;1.70;1.40;;;8.60;99.90;;;9.50;55.32;98384.09;5054415;28;20271;-67
2021/01/21 05:46:20;;;;;;;2.33;1.60;;;8.60;99.90;;;9.56;55.86;98375.00;5054733;28;20208;-68
2021/01/21 05:48:48;;;;;;;1.77;1.57;;;8.60;99.90;;;9.39;56.55;98371.63;5054661;28;20209;-67
2021/01/21 05:51:16;;;;;;;1.90;1.70;;;8.60;99.90;;;9.57;55.62;98378.50;5054471;28;20668;-66
2021/01/21 05:53:45;;;;;;;2.93;1.40;;;8.70;99.90;;;9.48;56.46;98380.84;5054718;28;20221;-67
2021/01/21 05:56:13;;;;;;;2.53;1.60;;;8.60;99.90;;;9.56;56.06;98391.13;5054578;28;20255;-67
2021/01/21 05:58:42;;;;;;;1.87;1.50;;;8.60;99.90;;;9.48;56.61;98382.72;5054255;28;20313;-68
2021/01/21 06:01:10;;;;;;;2.50;1.50;;;8.60;99.90;;;9.50;56.35;98373.34;5053941;28;20252;-68
2021/01/21 06:03:38;;;;;;;1.90;1.67;;;8.60;99.90;;;9.35;57.29;98380.47;5054685;28;20233;-68
2021/01/21 06:06:06;;;;;;;3.47;1.60;;;8.50;99.90;;;9.38;56.51;98366.50;5054053;28;20263;-68
2021/01/21 06:08:39;;;;;;;2.60;1.47;;;8.50;99.90;;;9.40;56.83;98375.91;5054406;28;20616;-68
2021/01/21 06:11:20;;;;;;;2.60;1.47;;;8.40;99.90;;;9.35;57.02;98370.50;5053837;28;20551;-67
2021/01/21 06:13:48;;;;;;;3.07;1.53;;;8.50;99.90;;;9.32;57.13;98381.78;5053233;28;20684;-68
2021/01/21 06:16:16;;;;;;;1.93;1.70;;;8.40;99.90;;;9.30;57.31;98372.34;5054385;28;20625;-67
2021/01/21 06:18:44;;;;;;;3.20;1.20;;;8.40;99.90;;;9.14;57.90;98367.91;5054337;28;20233;-67
2021/01/21 06:21:20;;;;;;;1.60;1.50;;;8.40;99.90;;;9.03;57.92;98358.94;5054391;28;20310;-67
2021/01/21 06:24:02;;;;;;;1.70;1.50;;;8.30;99.90;;;9.08;57.97;98356.28;5054195;28;20224;-67
2021/01/21 06:26:41;;;;;;;1.30;1.20;;;8.20;99.90;;;8.81;59.16;98349.31;5054193;28;20190;-67
2021/01/21 06:29:15;;;;;;;1.63;1.37;;;8.20;99.90;;;8.88;59.33;98355.31;5040987;28;20231;-68
2021/01/21 06:31:44;;;;;;;1.50;1.30;;;8.10;99.90;;;8.86;59.15;98352.06;5034147;28;20278;-66
2021/01/21 06:34:17;;;;;;;1.67;1.40;;;8.10;99.90;;;8.90;59.22;98350.47;5033741;28;20244;-66
2021/01/21 06:36:52;;;;;;;3.77;1.40;;;8.00;99.90;;;8.87;59.41;98341.06;5034365;28;20603;-68
2021/01/21 06:39:29;;;;;;;1.83;1.50;;;8.00;99.90;;;8.72;59.55;98348.94;5033748;28;20243;-67
2021/01/21 06:42:02;;;;;;;3.40;1.40;;;7.90;99.90;;;8.72;59.39;98340.91;5033503;28;20185;-67
2021/01/21 06:44:30;;;;;;;1.50;1.40;;;7.90;99.90;;;8.67;59.61;98335.47;5033324;28;20210;-68
2021/01/21 06:47:00;;;;;;;2.43;1.37;;;7.80;99.90;;;8.81;59.48;98333.22;5034006;28;20202;-68
2021/01/21 06:49:28;;;;;;;2.50;1.60;;;7.80;99.90;;;8.61;59.83;98323.88;5033664;28;20351;-68
2021/01/21 06:51:57;;;;;;;1.40;1.30;;;7.80;99.90;;;8.84;58.71;98325.47;5033015;28;20689;-68
2021/01/21 06:54:25;;;;;;;1.70;1.33;;;7.80;99.90;;;8.80;58.90;98324.34;5033565;28;20240;-68
2021/01/21 06:56:52;;;;;;;2.57;1.73;;;7.90;99.90;;;8.82;58.74;98321.38;5033448;28;20194;-67
2021/01/21 06:59:54;;;;;;;2.70;1.40;;;7.90;99.90;;;8.98;58.49;98323.97;5033397;28;20720;-68
2021/01/21 07:02:48;;;;;;;1.57;1.47;;;8.00;99.90;;;9.02;58.35;98330.47;5033895;28;20209;-68
2021/01/21 07:05:19;;;;;;;1.60;1.50;;;8.20;99.90;;;8.92;58.38;98342.97;5034052;28;20745;-68
2021/01/21 07:08:07;;;;;;;2.57;1.60;;;8.10;99.90;;;8.86;58.60;98344.00;5033395;28;20217;-67
2021/01/21 07:10:41;;;;;;;1.47;1.30;;;8.10;99.90;;;9.08;57.74;98367.03;5033445;28;20571;-67
2021/01/21 07:13:13;;;;;;;1.73;1.20;;;8.20;99.90;;;9.06;57.83;98374.56;5032718;28;20548;-67
2021/01/21 07:15:45;;;;;;;3.43;1.40;;;8.30;99.90;;;9.05;57.75;98391.72;5033361;28;20183;-67
2021/01/21 07:18:16;;;;;;;1.93;1.40;;;8.30;99.90;;;9.04;57.58;98395.47;5032968;28;20240;-66
2021/01/21 07:21:11;;;;;;;2.20;1.43;;;8.30;99.90;;;9.19;57.54;98392.13;5032975;28;20182;-67
2021/01/21 07:23:45;;;;;;;1.40;1.20;;;8.30;99.90;;;9.11;57.73;98389.91;5033585;28;20225;-67
2021/01/21 07:26:31;;;;;;;1.77;1.50;;;8.30;99.90;;;9.09;57.71;98392.03;5032590;28;20177;-66
2021/01/21 07:29:11;;;;;;;1.57;1.47;;;8.30;99.90;;;9.05;57.64;98380.97;5045099;28;20194;-67
2021/01/21 07:32:10;;;;;;;1.80;1.50;;;8.30;99.90;;;9.06;57.37;98368.38;5052741;28;20656;-66
2021/01/21 07:34:48;;;;;;;1.60;1.30;;;8.30;99.90;;;9.07;57.46;98357.38;5012959;28;20218;-67
2021/01/21 07:37:29;;;;;;;1.57;1.17;;;8.30;99.90;;;9.03;57.30;98353.56;5013258;28;20202;-67
2021/01/21 07:40:08;;;;;;;1.60;1.30;;;8.30;99.90;;;9.12;57.34;98348.53;5013267;28;20194;-67
2021/01/21 07:42:53;;;;;;;2.67;1.50;;;8.30;99.90;;;9.34;56.40;98333.97;5012842;28;20195;-67
2021/01/21 07:45:38;;;;;;;1.47;1.37;;;8.50;99.90;;;9.29;56.33;98346.53;5013212;28;20274;-67
2021/01/21 07:48:21;;;;;;;4.13;1.27;;;8.50;99.90;;;9.41;55.97;98352.56;5015945;28;20569;-67
2021/01/21 07:50:51;;;;;;;1.97;1.27;;;8.60;99.90;;;9.54;55.47;98358.31;5013945;28;20187;-67
2021/01/21 07:53:24;;;;;;;1.60;1.50;;;8.70;99.90;;;9.60;56.40;98359.16;5013257;28;20285;-68
2021/01/21 07:55:54;;;;;;;1.40;1.30;;;8.80;99.90;;;9.66;55.49;98348.19;5013207;28;20191;-66
2021/01/21 07:58:27;;;;;;;2.80;1.77;;;8.90;99.90;;;9.87;55.23;98365.28;5012923;28;20577;-68
2021/01/21 08:00:56;;;;;;;1.80;1.47;;;8.90;99.90;;;9.88;55.58;98358.81;4988124;28;20675;-72
2021/01/21 08:03:30;;;;;;;3.00;1.73;;;9.00;99.90;;;9.91;54.92;98366.34;4989854;28;20207;-72
2021/01/21 08:06:13;;;;;;;2.60;1.30;;;9.00;99.90;;;9.88;55.12;98366.88;4989834;28;20219;-67
2021/01/21 08:08:43;;;;;;;2.80;1.30;;;9.00;99.90;;;9.78;55.79;98366.81;4989981;28;20254;-67
2021/01/21 08:11:13;;;;;;;1.83;1.43;;;9.00;99.90;;;9.76;55.51;98359.00;4989711;28;20245;-63
2021/01/21 08:13:41;;;;;;;1.83;1.23;;;9.00;99.90;;;9.74;55.73;98352.28;4988879;28;20563;-64
2021/01/21 08:16:13;;;;;;;1.33;1.23;;;8.90;99.90;;;9.80;56.54;98362.81;4988997;28;20613;-63
2021/01/21 08:18:43;;;;;;;1.63;1.33;;;8.90;99.90;;;9.83;55.94;98359.59;4989575;28;20190;-63
2021/01/21 08:21:21;;;;;;;1.93;1.60;;;9.00;99.90;;;9.80;56.49;98356.63;4989474;28;20236;-64
2021/01/21 08:23:56;;;;;;;1.60;1.50;;;9.00;99.90;;;9.98;54.70;98342.75;4989228;28;20219;-64
2021/01/21 08:26:26;;;;;;;3.03;1.50;;;9.10;99.90;;;10.02;54.25;98340.34;4989657;28;20187;-65
2021/01/21 08:28:53;;;;;;;1.50;1.40;;;9.10;99.90;;;10.04;54.67;98336.34;4999277;28;20745;-65
2021/01/21 08:31:32;;;;;;;1.70;1.40;;;9.10;99.90;;;9.99;55.27;98322.03;5008688;28;20202;-66
2021/01/21 08:34:03;;;;;;;2.03;1.33;;;9.20;99.90;;;9.96;54.78;98320.69;5040813;28;20229;-59
2021/01/21 08:36:31;;;;;;;1.40;1.20;;;9.10;99.90;;;10.00;54.89;98316.41;5047760;28;20255;-65
2021/01/21 08:38:59;;;;;;;1.87;1.40;;;9.20;99.90;;;9.97;54.62;98322.31;5047896;28;20209;-67
2021/01/21 08:41:27;;;;;;;2.50;1.40;;;9.20;99.90;;;9.98;54.48;98321.22;5047702;28;20676;-67
2021/01/21 08:43:59;;;;;;;1.50;1.40;;;9.20;99.90;;;9.95;54.73;98319.06;5047458;28;20228;-67
2021/01/21 08:46:28;;;;;;;2.03;1.50;;;9.20;99.90;;;9.98;54.96;98328.50;5030753;28;20710;-63
2021/01/21 08:49:09;;;;;;;2.33;1.60;;;9.20;99.90;;;10.05;54.44;98323.66;5022806;28;20572;-63
2021/01/21 08:51:41;;;;;;;2.20;1.30;;;9.10;99.90;;;10.05;54.43;98329.88;5027972;28;20297;-61
2021/01/21 08:54:15;;;;;;;2.70;1.60;;;9.20;99.90;;;10.01;55.01;98320.72;5027712;28;20218;-62
2021/01/21 08:57:04;;;;;;;1.57;1.43;;;9.30;99.90;;;10.12;54.21;98335.88;5027763;28;20652;-62
2021/01/21 08:59:34;;;;;;;1.90;1.30;;;9.30;99.90;;;10.25;53.94;98335.38;5027517;28;20182;-65
2021/01/21 09:02:04;;;;;;;1.80;1.53;;;9.40;99.90;;;10.49;52.73;98328.50;5027810;28;20182;-67
2021/01/21 09:04:38;;;;;;;2.10;1.40;;;9.50;99.90;;;10.63;52.74;98328.81;5028330;28;20236;-67
2021/01/21 09:07:08;;;;;;;2.27;2.07;;;9.60;99.90;;;10.75;52.32;98332.06;5027768;28;20206;-67
2021/01/21 09:09:39;;;;;;;2.97;1.63;;;9.70;99.90;;;10.73;52.43;98318.06;5028016;28;20764;-67
2021/01/21 09:12:17;;;;;;;1.77;1.50;;;9.90;99.90;;;10.54;52.93;98315.03;5027793;28;20244;-68
2021/01/21 09:15:00;;;;;;;1.47;1.27;;;9.80;99.90;;;10.72;52.74;98303.00;5027214;28;20705;-68
2021/01/21 09:17:30;;;;;;;2.20;1.30;;;9.90;99.90;;;10.78;52.66;98301.91;5027721;28;20706;-69
2021/01/21 09:20:00;;;;;;;2.87;1.93;;;9.90;99.90;;;10.72;52.57;98306.47;5027657;28;20213;-68
2021/01/21 09:22:38;;;;;;;1.73;1.63;;;9.90;99.90;;;10.81;52.66;98293.28;5027282;28;20677;-68
2021/01/21 09:25:09;;;;;;;1.60;1.30;;;9.90;99.90;;;10.84;52.26;98298.94;5027782;28;20191;-69
2021/01/21 09:27:39;;;;;;;1.87;1.47;;;10.00;99.90;;;10.84;52.72;98295.47;5027878;28;20244;-66
2021/01/21 09:30:11;;;;;;;1.77;1.37;;;10.10;99.90;;;10.88;52.55;98286.59;5046949;28;20201;-68
2021/01/21 09:32:41;;;;;;;1.53;1.30;;;10.00;99.90;;;11.00;52.46;98299.78;5047240;28;20225;-67
2021/01/21 09:35:14;;;;;;;4.23;1.53;;;10.10;99.90;;;11.16;52.25;98306.00;5047814;28;20228;-65
2021/01/21 09:37:44;;;;;;;2.27;1.60;;;10.20;99.90;;;11.10;51.65;98305.19;5047309;28;20649;-64
2021/01/21 09:40:14;;;;;;;1.93;1.70;;;10.30;99.90;;;11.15;51.92;98298.97;5047743;28;20262;-63
2021/01/21 09:42:42;;;;;;;2.00;1.20;;;10.40;99.90;;;11.23;50.89;98306.56;5047666;28;20277;-62
2021/01/21 09:45:11;;;;;;;1.50;1.27;;;10.40;99.90;;;11.34;51.17;98298.19;5046987;28;20275;-68
2021/01/21 09:47:39;;;;;;;2.43;1.50;;;10.50;99.90;;;11.41;50.79;98306.81;5047383;28;20272;-67
2021/01/21 09:50:10;;;;;;;1.50;1.27;;;10.60;99.90;;;11.43;50.71;98288.50;5050368;28;20213;-65
2021/01/21 09:52:39;;;;;;;1.40;1.30;;;10.70;99.90;;;11.49;50.67;98319.75;5051120;28;20182;-66
2021/01/21 09:55:07;;;;;;;1.70;1.30;;;10.70;99.90;;;11.67;50.39;98315.72;5050529;28;20427;-65
2021/01/21 09:57:35;;;;;;;2.10;1.40;;;10.80;99.90;;;11.65;49.70;98323.28;5051504;28;20233;-72
2021/01/21 10:00:04;;;;;;;1.63;1.50;;;10.90;99.90;;;11.73;49.59;98325.44;5050108;28;20213;-70
2021/01/21 10:02:32;;;;;;;1.43;1.20;;;10.90;99.90;;;11.73;50.57;98323.53;5051056;28;20216;-71
2021/01/21 10:05:01;;;;;;;2.10;1.50;;;11.00;99.90;;;11.93;49.76;98318.09;5050721;28;20213;-68
2021/01/21 10:07:29;;;;;;;1.47;1.37;;;11.10;99.90;;;11.91;49.29;98327.53;5050812;28;20718;-67
2021/01/21 10:09:56;;;;;;;1.80;1.40;;;11.10;99.90;;;11.94;49.44;98335.91;5050716;28;20613;-67
2021/01/21 10:12:24;;;;;;;1.53;1.30;;;11.10;99.90;;;11.86;49.25;98346.44;5050682;28;20205;-68
2021/01/21 10:14:52;;;;;;;2.67;1.60;;;11.20;99.90;;;12.03;49.09;98346.94;5050246;28;20265;-68
2021/01/21 10:17:23;;;;;;;2.83;1.50;;;11.10;99.90;;;12.07;49.63;98350.72;5050334;28;20201;-67
2021/01/21 10:19:50;;;;;;;1.87;1.27;;;11.20;99.90;;;11.78;49.54;98360.47;5050437;28;20201;-67
2021/01/21 10:22:17;;;;;;;2.67;1.47;;;11.20;99.90;;;11.75;50.35;98361.84;5050439;28;20665;-72
2021/01/21 10:24:46;;;;;;;2.27;1.40;;;11.10;99.90;;;11.76;50.60;98370.72;5050641;28;20209;-64
2021/01/21 10:27:14;;;;;;;3.03;1.53;;;11.00;99.90;;;11.88;50.46;98363.16;5050571;28;20220;-66
2021/01/21 10:29:41;;;;;;;2.70;1.30;;;11.10;99.90;;;11.92;51.01;98365.03;5032652;28;20202;-67
2021/01/21 10:32:08;;;;;;;2.17;1.60;;;11.10;99.90;;;12.07;49.90;98356.13;5029824;28;20198;-67
2021/01/21 10:34:36;;;;;;;2.10;1.43;;;11.20;99.90;;;12.11;50.31;98354.47;5030098;28;20733;-64
2021/01/21 10:37:04;;;;;;;2.63;1.80;;;11.30;99.90;;;12.21;50.13;98349.88;5030159;28;20256;-64
2021/01/21 10:39:31;;;;;;;2.30;1.63;;;11.30;99.90;;;12.20;50.44;98350.97;5030377;28;20202;-64
2021/01/21 10:41:59;;;;;;;1.97;1.50;;;11.40;99.90;;;12.22;50.90;98350.69;5030303;28;20202;-68
2021/01/21 10:44:27;;;;;;;1.83;1.10;;;11.40;99.90;;;12.34;50.72;98347.69;5029881;28;20681;-68
2021/01/21 10:46:54;;;;;;;2.77;1.40;;;11.40;99.90;;;12.39;50.97;98347.66;5030580;28;20229;-68